Time;durP1;ratioP1;P1;durP2;ratioP2;P2;SDS_P1;SDS_P2;PMS_P1;PMS_P2;Temp;Humidity;BMP_temperature;BMP_pressure;BME280_temperature;BME280_humidity;BME280_pressure;Samples;Min_cycle;Max_cycle;Signal;HPM_P1;HPM_P2
2021/06/06 00:09:17;;;;;;;9.17;8.10;;;;;;;12.36;64.64;99835.14;513289;1093;116564;-61
2021/06/06 00:19:22;;;;;;;;;;;;;;;12.26;65.06;99842.83;513338;1092;116250;-61
2021/06/06 00:29:28;;;;;;;9.47;6.67;;;;;;;12.07;65.02;99838.78;504382;1092;10001380;-61
2021/06/06 00:39:33;;;;;;;8.50;7.47;;;;;;;11.94;65.22;99835.25;512343;1093;116548;-61
2021/06/06 00:49:38;;;;;;;10.53;7.97;;;;;;;11.78;65.75;99823.94;513798;1092;117448;-61
2021/06/06 00:59:48;;;;;;;8.77;7.93;;;;;;;11.61;65.67;99832.10;517884;1093;116485;-59
2021/06/06 01:09:53;;;;;;;9.13;7.40;;;;;;;11.50;66.22;99830.14;520115;1092;116332;-60
2021/06/06 01:20:08;;;;;;;9.10;8.20;;;;;;;11.38;66.32;99826.53;530325;1092;115851;-61
2021/06/06 01:30:22;;;;;;;9.13;8.23;;;;;;;11.33;66.63;99841.73;523642;1093;116124;-61
2021/06/06 01:40:32;;;;;;;13.33;8.53;;;;;;;11.15;67.07;99841.97;529902;1093;116084;-60
2021/06/06 01:50:43;;;;;;;9.23;8.30;;;;;;;11.06;67.68;99847.80;524436;1093;117427;-58
2021/06/06 02:00:53;;;;;;;8.40;7.60;;;;;;;10.93;67.77;99851.18;529884;1092;115821;-60
2021/06/06 02:11:05;;;;;;;11.97;7.77;;;;;;;10.89;67.97;99847.03;529917;1093;115901;-61
2021/06/06 02:21:12;;;;;;;9.10;7.07;;;;;;;10.85;67.89;99848.17;529820;1092;117930;-60
2021/06/06 02:31:27;;;;;;;9.23;8.33;;;;;;;10.78;68.63;99852.09;530608;1093;116543;-60
2021/06/06 02:41:39;;;;;;;10.57;8.13;;;;;;;10.86;68.94;99856.91;528625;1092;116296;-60
2021/06/06 02:51:50;;;;;;;8.13;7.33;;;;;;;11.30;68.56;99855.08;530431;1092;116317;-61
2021/06/06 03:02:00;;;;;;;9.07;8.23;;;;;;;13.29;67.55;99855.09;530588;1092;117525;-61
2021/06/06 03:12:09;;;;;;;9.70;8.05;;;;;;;16.97;62.04;99846.72;518522;1093;116940;-60
2021/06/06 03:22:19;;;;;;;10.63;7.70;;;;;;;17.31;58.26;99845.58;525983;1092;116584;-61
2021/06/06 03:32:29;;;;;;;8.70;7.80;;;;;;;17.02;57.17;99838.39;528368;1093;116977;-61
2021/06/06 03:42:35;;;;;;;10.87;8.00;;;;;;;16.00;57.55;99842.54;521884;1092;116535;-62
2021/06/06 03:52:41;;;;;;;9.10;8.20;;;;;;;16.29;59.51;99849.84;530623;1092;116383;-61
2021/06/06 04:02:47;;;;;;;8.33;7.63;;;;;;;25.03;51.80;99846.78;529852;1092;116873;-62
2021/06/06 04:12:53;;;;;;;9.10;8.30;;;;;;;30.74;42.61;99834.11;528612;1092;119337;-62
2021/06/06 04:22:59;;;;;;;9.35;7.20;;;;;;;34.79;36.01;99834.44;522581;1092;116338;-60
2021/06/06 04:33:08;;;;;;;12.87;8.13;;;;;;;38.28;30.43;99837.97;525487;1092;116347;-62
2021/06/06 04:43:14;;;;;;;7.95;6.13;;;;;;;41.47;25.75;99840.13;530571;1092;117189;-61
2021/06/06 04:53:20;;;;;;;6.70;5.50;;;;;;;44.48;22.83;99841.86;520534;1092;115947;-61
2021/06/06 05:03:26;;;;;;;5.65;5.15;;;;;;;47.41;19.72;99835.91;521362;1092;116610;-62
2021/06/06 05:13:32;;;;;;;6.10;4.85;;;;;;;48.79;17.26;99838.45;530600;1093;116160;-62
2021/06/06 05:23:38;;;;;;;3.68;3.38;;;;;;;49.96;14.36;99830.50;529371;1092;117191;-61
2021/06/06 05:33:44;;;;;;;4.10;2.50;;;;;;;50.27;13.45;99835.25;530512;1092;116775;-63
2021/06/06 05:43:50;;;;;;;3.55;2.23;;;;;;;52.06;12.29;99831.17;530526;1092;117459;-63
2021/06/06 05:53:57;;;;;;;4.10;2.83;;;;;;;51.65;11.73;99846.47;529166;1092;117274;-62
2021/06/06 06:04:03;;;;;;;3.00;2.70;;;;;;;54.46;10.06;99843.00;523577;1092;116343;-62
2021/06/06 06:14:09;;;;;;;3.40;3.10;;;;;;;53.49;9.61;99846.64;517080;1093;176845;-62
2021/06/06 06:24:15;;;;;;;3.63;3.37;;;;;;;54.01;9.55;99852.30;529220;1092;115752;-62
2021/06/06 06:34:22;;;;;;;4.40;4.00;;;;;;;53.78;9.51;99853.34;531026;1092;116245;-62
2021/06/06 06:44:27;;;;;;;4.68;4.30;;;;;;;53.63;8.44;99849.57;530533;1093;116611;-63
2021/06/06 06:54:34;;;;;;;4.38;4.18;;;;;;;52.61;9.56;99844.80;530279;1092;116088;-62
2021/06/06 07:04:40;;;;;;;5.30;4.90;;;;;;;53.53;8.21;99855.10;527942;1092;117289;-63
2021/06/06 07:14:46;;;;;;;5.83;5.48;;;;;;;53.12;8.19;99853.06;529798;1092;116803;-62
2021/06/06 07:24:52;;;;;;;6.90;6.53;;;;;;;52.60;8.29;99845.98;530984;1092;116346;-63
2021/06/06 07:34:57;;;;;;;6.03;5.58;;;;;;;52.14;8.52;99846.90;521171;1093;115735;-62
2021/06/06 07:45:06;;;;;;;2.93;2.40;;;;;;;51.01;8.28;99828.10;529078;1092;116438;-61
2021/06/06 07:55:15;;;;;;;5.05;2.25;;;;;;;40.80;12.70;99822.66;530596;1092;116942;-62
2021/06/06 08:05:22;;;;;;;3.57;2.70;;;;;;;33.86;17.27;99831.20;529514;1092;116487;-62
2021/06/06 08:15:28;;;;;;;3.30;2.00;;;;;;;30.61;21.23;99840.50;530313;1092;116114;-61
2021/06/06 08:25:34;;;;;;;3.33;3.03;;;;;;;29.37;22.86;99855.38;530994;1092;119043;-61
2021/06/06 08:35:41;;;;;;;3.93;2.57;;;;;;;28.22;24.98;99868.35;529791;1093;115926;-61
2021/06/06 08:45:51;;;;;;;4.50;2.60;;;;;;;27.59;24.77;99862.25;530388;1093;116166;-61
2021/06/06 08:56:16;;;;;;;2.60;2.40;;;;;;;27.40;24.83;99863.83;530500;1093;116241;-62
2021/06/06 09:06:31;;;;;;;3.00;2.00;;;;;;;26.95;25.36;99851.63;526932;1091;116112;-61
2021/06/06 09:16:51;;;;;;;1.87;1.57;;;;;;;26.68;24.58;99854.16;530521;1092;116427;-57
2021/06/06 09:27:09;;;;;;;2.53;1.88;;;;;;;26.97;25.73;99843.36;512252;1092;10113456;-57
2021/06/06 09:37:20;;;;;;;4.87;2.30;;;;;;;26.90;25.71;99832.55;530231;1091;116485;-57
2021/06/06 09:47:25;;;;;;;2.10;1.80;;;;;;;26.86;25.02;99839.32;527641;1093;116983;-58
2021/06/06 09:57:35;;;;;;;2.37;2.13;;;;;;;27.24;25.39;99824.59;525635;1093;116055;-57
2021/06/06 10:07:53;;;;;;;2.73;1.83;;;;;;;27.47;25.59;99823.41;530519;1092;116501;-57
2021/06/06 10:18:00;;;;;;;;;;;;;;;27.69;25.44;99818.69;524237;1093;116311;-58
2021/06/06 10:28:09;;;;;;;4.20;2.60;;;;;;;27.49;25.99;99810.54;514185;1092;102553;-57
2021/06/06 10:38:16;;;;;;;3.67;1.90;;;;;;;26.81;26.31;99810.29;523823;1092;116128;-57
2021/06/06 10:48:28;;;;;;;2.90;1.80;;;;;;;27.13;26.14;99807.15;529632;1092;116164;-58
2021/06/06 10:58:39;;;;;;;2.47;2.27;;;;;;;26.61;27.13;99810.20;524594;1092;116283;-57
2021/06/06 11:08:46;;;;;;;2.70;2.07;;;;;;;26.43;26.52;99808.02;518096;1092;118576;-58
2021/06/06 11:18:55;;;;;;;;;;;;;;;26.70;27.36;99803.63;529812;1092;116017;-59
2021/06/06 11:29:12;;;;;;;2.97;2.17;;;;;;;26.41;27.75;99796.63;531162;1092;102165;-58
2021/06/06 11:39:32;;;;;;;3.35;2.03;;;;;;;26.67;26.80;99795.10;525825;1093;116296;-58
2021/06/06 11:49:50;;;;;;;5.53;5.03;;;;;;;26.75;26.54;99780.63;515779;1092;116382;-59
2021/06/06 11:59:58;;;;;;;22.48;17.93;;;;;;;26.16;27.13;99773.66;523589;1093;116266;-59
2021/06/06 12:10:06;;;;;;;11.70;10.70;;;;;;;26.32;26.54;99762.81;519381;1092;116542;-59
2021/06/06 12:20:16;;;;;;;2.47;2.20;;;;;;;26.22;27.43;99761.30;522947;1093;116918;-58
2021/06/06 12:30:26;;;;;;;5.35;2.10;;;;;;;25.83;26.73;99749.22;526745;1092;116496;-58
2021/06/06 12:40:36;;;;;;;3.65;1.35;;;;;;;25.83;26.66;99744.66;513195;1092;116230;-59
2021/06/06 12:50:44;;;;;;;2.57;2.37;;;;;;;25.49;27.15;99748.06;512994;1093;117144;-57
2021/06/06 13:00:52;;;;;;;2.07;1.97;;;;;;;25.48;26.79;99747.22;513504;1092;116072;-58
2021/06/06 13:11:00;;;;;;;2.13;1.83;;;;;;;25.28;26.22;99753.26;513284;1093;116865;-57
2021/06/06 13:21:16;;;;;;;4.80;1.70;;;;;;;25.35;26.96;99737.20;512509;1092;116603;-58
2021/06/06 13:31:30;;;;;;;2.67;1.83;;;;;;;25.47;26.65;99734.81;512778;1093;116645;-58
2021/06/06 13:41:36;;;;;;;15.80;2.97;;;;;;;25.41;26.02;99731.04;513948;1092;115449;-57
2021/06/06 13:51:43;;;;;;;1.77;1.67;;;;;;;25.24;25.90;99743.08;512820;1093;115651;-57
2021/06/06 14:01:50;;;;;;;3.83;1.77;;;;;;;24.95;26.04;99729.55;512616;1093;116537;-59
2021/06/06 14:11:59;;;;;;;1.98;1.88;;;;;;;24.74;25.77;99738.34;522507;1093;116224;-59
2021/06/06 14:22:06;;;;;;;2.87;1.80;;;;;;;24.55;26.03;99737.08;529803;1092;116434;-58
2021/06/06 14:32:12;;;;;;;2.27;1.57;;;;;;;24.54;25.86;99738.10;512993;1092;20002188;-58
2021/06/06 14:42:19;;;;;;;7.30;2.23;;;;;;;24.48;26.19;99748.58;525910;1092;116013;-58
2021/06/06 14:52:25;;;;;;;3.97;1.53;;;;;;;24.35;25.44;99735.80;515923;1092;116178;-59
2021/06/06 15:02:31;;;;;;;2.23;1.60;;;;;;;24.25;25.50;99739.79;530902;1091;116435;-58
2021/06/06 15:12:37;;;;;;;2.50;1.50;;;;;;;24.23;25.33;99731.07;519977;1093;115635;-57
2021/06/06 15:22:45;;;;;;;3.47;1.53;;;;;;;24.16;25.08;99728.30;526811;1092;115636;-58
2021/06/06 15:32:51;;;;;;;1.73;1.43;;;;;;;24.05;25.18;99722.37;521627;1092;116329;-58
2021/06/06 15:42:57;;;;;;;2.70;1.40;;;;;;;23.89;25.03;99722.52;525195;1093;116216;-58
2021/06/06 15:53:05;;;;;;;2.00;1.80;;;;;;;23.78;25.99;99711.22;512517;1092;116058;-58
2021/06/06 16:03:24;;;;;;;4.03;1.80;;;;;;;23.88;27.01;99710.13;524469;1092;116023;-58
2021/06/06 16:13:30;;;;;;;1.70;1.60;;;;;;;23.62;27.57;99701.47;526531;1092;116540;-57
2021/06/06 16:23:37;;;;;;;2.53;2.33;;;;;;;23.56;28.34;99710.25;517972;1093;116822;-59
2021/06/06 16:33:45;;;;;;;4.47;2.33;;;;;;;23.69;29.20;99703.44;519803;1093;116796;-65
2021/06/06 16:43:52;;;;;;;2.03;1.93;;;;;;;24.05;29.59;99703.59;524790;1092;116563;-65
2021/06/06 16:53:59;;;;;;;2.50;1.93;;;;;;;24.00;29.33;99694.41;530153;1092;116121;-64
2021/06/06 17:04:05;;;;;;;2.60;2.40;;;;;;;23.56;30.16;99699.53;527336;1092;116605;-65
2021/06/06 17:14:11;;;;;;;2.77;2.10;;;;;;;23.27;31.03;99689.53;530891;1092;117136;-66
2021/06/06 17:24:17;;;;;;;4.45;2.40;;;;;;;23.06;31.50;99680.30;519193;1093;117749;-65
2021/06/06 17:34:24;;;;;;;2.25;2.05;;;;;;;22.83;31.53;99691.82;524653;1092;116510;-65
2021/06/06 17:44:32;;;;;;;2.68;2.13;;;;;;;22.65;31.81;99689.41;530600;1093;116115;-66
2021/06/06 17:54:38;;;;;;;2.38;2.18;;;;;;;23.25;31.21;99692.38;522566;1092;116242;-65
2021/06/06 18:04:43;;;;;;;3.40;2.73;;;;;;;22.52;32.20;99689.96;517233;1092;116802;-65
2021/06/06 18:14:50;;;;;;;5.65;2.75;;;;;;;22.04;32.47;99696.11;524489;1092;116452;-65
2021/06/06 18:24:56;;;;;;;4.23;2.37;;;;;;;21.60;32.84;99713.36;512442;1092;120643;-66
2021/06/06 18:35:03;;;;;;;2.85;2.65;;;;;;;21.11;33.76;99720.30;516528;1092;116297;-66
2021/06/06 18:45:11;;;;;;;3.47;2.27;;;;;;;20.75;34.14;99735.71;530082;1093;116715;-66
2021/06/06 18:55:20;;;;;;;4.25;2.10;;;;;;;20.44;34.62;99742.42;523199;1093;116366;-66
2021/06/06 19:05:27;;;;;;;3.90;3.30;;;;;;;20.11;35.11;99750.23;521231;1093;117370;-64
2021/06/06 19:15:34;;;;;;;6.50;4.13;;;;;;;19.83;35.51;99758.31;519286;1093;116739;-65
2021/06/06 19:25:42;;;;;;;6.47;5.13;;;;;;;19.46;35.73;99771.66;512328;1092;116058;-64
2021/06/06 19:35:51;;;;;;;15.20;12.48;;;;;;;19.12;36.22;99790.94;511523;1092;116368;-62
2021/06/06 19:45:58;;;;;;;5.83;5.30;;;;;;;18.85;36.69;99795.27;530484;1092;117832;-61
2021/06/06 19:56:09;;;;;;;15.15;10.08;;;;;;;18.62;36.98;99802.76;530479;1092;116525;-63
2021/06/06 20:06:18;;;;;;;13.63;6.13;;;;;;;18.36;38.19;99811.38;530184;1092;116305;-62
2021/06/06 20:16:27;;;;;;;7.83;4.30;;;;;;;18.05;39.27;99814.22;530507;1092;117430;-61
2021/06/06 20:26:33;;;;;;;6.30;4.80;;;;;;;17.63;41.97;99810.87;530269;1093;116347;-62
2021/06/06 20:36:44;;;;;;;8.57;4.93;;;;;;;17.21;43.41;99819.03;525445;1092;117479;-57
2021/06/06 20:46:50;;;;;;;12.80;4.70;;;;;;;16.79;44.73;99819.98;520334;1092;116372;-58
2021/06/06 20:56:56;;;;;;;8.15;4.43;;;;;;;16.45;46.25;99815.79;514025;1092;118513;-58
2021/06/06 21:07:02;;;;;;;5.53;3.80;;;;;;;16.06;47.26;99819.03;517732;1092;116803;-57
2021/06/06 21:17:08;;;;;;;6.50;3.53;;;;;;;15.70;48.44;99829.02;525581;1092;116536;-57
2021/06/06 21:27:14;;;;;;;11.83;4.00;;;;;;;15.35;49.40;99838.84;515728;1091;116273;-57
2021/06/06 21:37:20;;;;;;;6.97;4.27;;;;;;;15.10;50.70;99824.95;529025;1093;115881;-58
2021/06/06 21:47:27;;;;;;;7.90;3.90;;;;;;;14.87;51.88;99828.56;526776;1092;116941;-57
2021/06/06 21:57:34;;;;;;;7.70;3.83;;;;;;;14.65;52.61;99830.20;511791;1093;116473;-58
2021/06/06 22:07:40;;;;;;;6.77;4.33;;;;;;;14.41;53.51;99826.67;522576;1092;115625;-58
2021/06/06 22:17:46;;;;;;;4.57;4.17;;;;;;;14.23;54.37;99831.56;514616;1093;116327;-59
2021/06/06 22:28:27;;;;;;;9.27;4.30;;;;;;;14.01;55.29;99840.27;512916;1093;116265;-59
2021/06/06 22:39:07;;;;;;;10.43;5.67;;;;;;;13.86;56.01;99839.61;517902;1091;116442;-58
2021/06/06 22:49:47;;;;;;;8.43;5.00;;;;;;;13.71;56.76;99847.70;530979;1093;116739;-58
2021/06/06 23:00:28;;;;;;;6.73;4.73;;;;;;;13.61;57.51;99846.69;528248;1092;116995;-59
2021/06/06 23:11:11;;;;;;;38.50;7.43;;;;;;;13.50;58.10;99841.35;523244;1092;116473;-59
2021/06/06 23:21:17;;;;;;;11.10;4.57;;;;;;;13.36;58.17;99839.67;530018;1092;117169;-58
2021/06/06 23:31:24;;;;;;;9.17;4.57;;;;;;;13.18;58.71;99827.69;519067;1091;116634;-59
2021/06/06 23:41:30;;;;;;;6.95;4.55;;;;;;;12.95;59.82;99831.12;519081;1092;116397;-58
2021/06/06 23:51:38;;;;;;;7.07;4.23;;;;;;;12.77;60.05;99839.38;512199;1093;116684;-60
